Time;durP1;ratioP1;P1;durP2;ratioP2;P2;SDS_P1;SDS_P2;PMS_P1;PMS_P2;Temp;Humidity;BMP_temperature;BMP_pressure;BME280_temperature;BME280_humidity;BME280_pressure;Samples;Min_cycle;Max_cycle;Signal;HPM_P1;HPM_P2
2024/01/13 00:01:53;;;;;;;5.38;2.92;;;3.40;99.90;;;;;;5068068;28;20143;-66
2024/01/13 00:04:21;;;;;;;4.47;2.50;;;3.30;99.90;;;;;;5068509;28;20460;-65
2024/01/13 00:06:47;;;;;;;5.57;2.55;;;3.30;99.90;;;;;;5067614;28;20464;-64
2024/01/13 00:09:13;;;;;;;6.63;2.95;;;3.20;99.90;;;;;;5069477;28;20063;-64
2024/01/13 00:11:41;;;;;;;7.45;2.60;;;3.40;99.90;;;;;;5068576;28;20059;-65
2024/01/13 00:14:07;;;;;;;4.45;2.60;;;3.50;99.90;;;;;;5068206;28;20061;-64
2024/01/13 00:16:33;;;;;;;6.18;3.03;;;3.40;99.90;;;;;;5069356;28;20052;-65
2024/01/13 00:19:00;;;;;;;8.00;3.10;;;3.20;99.90;;;;;;5068098;28;20476;-65
2024/01/13 00:21:26;;;;;;;7.72;3.80;;;3.50;99.90;;;;;;5068145;28;20396;-65
2024/01/13 00:23:52;;;;;;;11.07;4.10;;;3.50;99.90;;;;;;5068952;28;20403;-65
2024/01/13 00:26:19;;;;;;;7.88;3.72;;;3.20;99.90;;;;;;5067754;28;20049;-64
2024/01/13 00:28:46;;;;;;;5.88;3.42;;;3.20;99.90;;;;;;5067918;28;20468;-65
2024/01/13 00:31:12;;;;;;;5.22;3.60;;;3.50;99.90;;;;;;5069277;28;20114;-65
2024/01/13 00:33:43;;;;;;;9.93;4.38;;;3.20;99.90;;;;;;5067951;28;20068;-64
2024/01/13 00:36:10;;;;;;;7.50;3.20;;;3.50;99.90;;;;;;5050916;28;20078;-63
2024/01/13 00:38:37;;;;;;;10.65;4.65;;;3.20;99.90;;;;;;5067774;28;20052;-64
2024/01/13 00:41:05;;;;;;;9.30;4.28;;;3.50;99.90;;;;;;5051231;28;20063;-65
2024/01/13 00:43:33;;;;;;;13.75;4.43;;;3.30;99.90;;;;;;5068108;28;20044;-64
2024/01/13 00:45:59;;;;;;;16.65;5.47;;;3.40;99.90;;;;;;5067473;28;20044;-65
2024/01/13 00:48:27;;;;;;;11.18;4.20;;;3.30;99.90;;;;;;5067230;28;20056;-63
2024/01/13 00:50:53;;;;;;;8.63;4.32;;;3.30;99.90;;;;;;5070884;28;20338;-65
2024/01/13 00:53:20;;;;;;;7.57;3.47;;;3.30;99.90;;;;;;5071234;28;20071;-65
2024/01/13 00:55:46;;;;;;;16.83;5.82;;;3.30;99.90;;;;;;5072208;28;20040;-65
2024/01/13 00:58:12;;;;;;;7.70;3.78;;;3.50;99.90;;;;;;5071366;28;20049;-64
2024/01/13 01:00:39;;;;;;;4.50;3.40;;;3.50;99.90;;;;;;5072304;28;20055;-65
2024/01/13 01:03:05;;;;;;;4.93;3.53;;;3.40;99.90;;;;;;5071143;28;20568;-66
2024/01/13 01:05:31;;;;;;;7.30;3.42;;;3.30;99.90;;;;;;5070963;28;20475;-65
2024/01/13 01:07:57;;;;;;;7.82;3.35;;;3.20;99.90;;;;;;5070639;28;20105;-64
2024/01/13 01:10:24;;;;;;;10.15;4.00;;;3.30;99.90;;;;;;5071916;28;20056;-63
2024/01/13 01:12:50;;;;;;;7.88;4.15;;;3.20;99.90;;;;;;5071225;28;20059;-66
2024/01/13 01:15:16;;;;;;;14.48;5.22;;;3.30;99.90;;;;;;5070514;28;20051;-66
2024/01/13 01:17:44;;;;;;;9.25;4.00;;;3.20;99.90;;;;;;5071450;28;20051;-65
2024/01/13 01:20:11;;;;;;;9.30;3.85;;;3.20;99.90;;;;;;5070823;28;20049;-65
2024/01/13 01:22:37;;;;;;;9.70;4.00;;;3.20;99.90;;;;;;5054148;28;20457;-65
2024/01/13 01:25:04;;;;;;;6.15;3.50;;;3.40;99.90;;;;;;5071843;28;20120;-65
2024/01/13 01:27:30;;;;;;;8.00;4.20;;;3.20;99.90;;;;;;5070184;28;20048;-64
2024/01/13 01:29:56;;;;;;;16.77;5.60;;;3.50;99.90;;;;;;5070432;28;20059;-65
2024/01/13 01:32:22;;;;;;;14.82;5.18;;;3.50;99.90;;;;;;5070177;28;20059;-64
2024/01/13 01:34:50;;;;;;;12.18;4.50;;;3.20;99.90;;;;;;5070429;28;20055;-64
2024/01/13 01:37:17;;;;;;;10.10;4.00;;;3.30;99.90;;;;;;5069743;28;20464;-63
2024/01/13 01:39:44;;;;;;;9.25;3.85;;;3.20;99.90;;;;;;5071725;28;20041;-64
2024/01/13 01:42:10;;;;;;;19.88;5.53;;;3.30;99.90;;;;;;5070815;28;20463;-64
2024/01/13 01:44:36;;;;;;;24.92;6.38;;;3.40;99.90;;;;;;5053656;28;20079;-66
2024/01/13 01:47:04;;;;;;;22.75;6.65;;;3.20;99.90;;;;;;5070678;28;20052;-63
2024/01/13 01:49:31;;;;;;;14.20;5.72;;;3.20;99.90;;;;;;5070301;28;20045;-64
2024/01/13 01:51:57;;;;;;;18.23;5.88;;;3.40;99.90;;;;;;5070953;28;20498;-64
2024/01/13 01:54:24;;;;;;;27.05;7.75;;;3.30;99.90;;;;;;5070936;28;20496;-64
2024/01/13 01:56:50;;;;;;;16.77;6.25;;;3.20;99.90;;;;;;5070580;28;20044;-65
2024/01/13 01:59:17;;;;;;;32.63;7.53;;;3.20;99.90;;;;;;5070172;28;20088;-64
2024/01/13 02:01:45;;;;;;;27.33;7.05;;;3.30;99.90;;;;;;5069306;28;20063;-64
2024/01/13 02:04:12;;;;;;;15.77;4.65;;;3.30;99.90;;;;;;5071103;28;20372;-64
2024/01/13 02:06:38;;;;;;;11.55;4.47;;;3.40;99.90;;;;;;5070056;28;20052;-64
2024/01/13 02:09:05;;;;;;;13.55;5.35;;;3.50;99.90;;;;;;5071041;28;20163;-64
2024/01/13 02:11:31;;;;;;;7.53;4.40;;;3.50;99.90;;;;;;5069730;28;20144;-63
2024/01/13 02:13:57;;;;;;;8.35;4.22;;;3.40;99.90;;;;;;5069425;28;20056;-64
2024/01/13 02:16:24;;;;;;;11.38;5.38;;;3.30;99.90;;;;;;5069122;28;20101;-65
2024/01/13 02:18:50;;;;;;;12.20;5.82;;;3.20;99.90;;;;;;5069831;28;20059;-65
2024/01/13 02:21:16;;;;;;;12.70;5.72;;;3.20;99.90;;;;;;5069310;28;20051;-64
2024/01/13 02:23:43;;;;;;;27.48;7.43;;;3.40;99.90;;;;;;5069805;28;20056;-64
2024/01/13 02:26:09;;;;;;;9.27;4.63;;;3.40;99.90;;;;;;5069439;28;20380;-63
2024/01/13 02:28:36;;;;;;;10.65;4.88;;;3.30;99.90;;;;;;5069164;28;20049;-64
2024/01/13 02:31:02;;;;;;;18.05;7.00;;;3.40;99.90;;;;;;5069421;28;20353;-63
2024/01/13 02:33:28;;;;;;;9.68;5.20;;;3.40;99.90;;;;;;5069164;28;20063;-64
2024/01/13 02:35:55;;;;;;;10.27;4.43;;;3.20;99.90;;;;;;5068842;28;20062;-64
2024/01/13 02:38:21;;;;;;;7.90;4.18;;;3.20;99.90;;;;;;5069061;28;20045;-64
2024/01/13 02:40:47;;;;;;;8.70;4.22;;;3.40;99.90;;;;;;5069489;28;20060;-65
2024/01/13 02:43:14;;;;;;;6.30;4.28;;;3.20;99.90;;;;;;5069140;28;20139;-65
2024/01/13 02:45:40;;;;;;;5.78;4.10;;;3.30;99.90;;;;;;5052722;28;20059;-65
2024/01/13 02:48:13;;;;;;;6.38;4.22;;;3.10;99.90;;;;;;5068495;28;20060;-64
2024/01/13 02:50:39;;;;;;;7.10;4.45;;;3.10;99.90;;;;;;5069170;28;20067;-64
2024/01/13 02:53:06;;;;;;;5.97;3.97;;;3.30;99.90;;;;;;5068743;28;20126;-66
2024/01/13 02:55:34;;;;;;;7.18;4.80;;;3.00;99.90;;;;;;5069061;28;20353;-64
2024/01/13 02:58:00;;;;;;;8.60;4.57;;;3.00;99.90;;;;;;5068517;28;20049;-64
2024/01/13 03:00:26;;;;;;;7.97;4.80;;;3.00;99.90;;;;;;5068870;28;20052;-65
2024/01/13 03:02:53;;;;;;;6.88;4.82;;;2.90;99.90;;;;;;5068674;28;20351;-65
2024/01/13 03:05:19;;;;;;;7.75;4.45;;;2.90;99.90;;;;;;5068675;28;20052;-66
2024/01/13 03:07:45;;;;;;;6.43;4.05;;;2.90;99.90;;;;;;5068320;28;20056;-64
2024/01/13 03:10:12;;;;;;;5.93;3.63;;;2.90;99.90;;;;;;5068520;28;20087;-64
2024/01/13 03:12:38;;;;;;;9.45;4.82;;;3.10;99.90;;;;;;5068281;28;20056;-64
2024/01/13 03:15:04;;;;;;;6.53;4.40;;;3.00;99.90;;;;;;5068609;28;20119;-65
2024/01/13 03:17:31;;;;;;;7.53;4.13;;;3.20;99.90;;;;;;5068604;28;20060;-65
2024/01/13 03:19:57;;;;;;;6.20;3.78;;;3.00;99.90;;;;;;5068501;28;20503;-66
2024/01/13 03:22:23;;;;;;;6.45;3.63;;;3.00;99.90;;;;;;5068571;28;20052;-63
2024/01/13 03:24:49;;;;;;;7.15;3.65;;;3.20;99.90;;;;;;5068446;28;20056;-64
2024/01/13 03:27:16;;;;;;;5.43;4.00;;;3.00;99.90;;;;;;5068476;28;20471;-64
2024/01/13 03:29:42;;;;;;;7.57;3.80;;;3.20;99.90;;;;;;5068655;28;20055;-64
2024/01/13 03:32:08;;;;;;;11.65;3.97;;;3.20;99.90;;;;;;5068585;28;20090;-65
2024/01/13 03:34:34;;;;;;;6.65;3.50;;;3.00;99.90;;;;;;5068237;28;20059;-64
2024/01/13 03:37:01;;;;;;;5.82;3.25;;;3.00;99.90;;;;;;5067942;28;20049;-64
2024/01/13 03:39:27;;;;;;;6.55;3.42;;;3.20;99.90;;;;;;5068289;28;20048;-66
2024/01/13 03:41:53;;;;;;;5.85;3.78;;;3.00;99.90;;;;;;5052089;28;20066;-64
2024/01/13 03:44:20;;;;;;;5.88;3.15;;;3.10;99.90;;;;;;5068466;28;20041;-64
2024/01/13 03:46:46;;;;;;;4.88;3.38;;;3.20;99.90;;;;;;5067335;28;20053;-64
2024/01/13 03:49:12;;;;;;;5.03;3.35;;;3.30;99.90;;;;;;5068143;28;20083;-65
2024/01/13 03:51:38;;;;;;;5.70;4.00;;;3.20;99.90;;;;;;5068402;28;20048;-65
2024/01/13 03:54:05;;;;;;;6.35;4.00;;;3.00;99.90;;;;;;5068005;28;20057;-64
2024/01/13 03:56:31;;;;;;;23.95;8.25;;;3.20;99.90;;;;;;5067468;28;20048;-65
2024/01/13 03:58:57;;;;;;;13.00;5.97;;;3.20;99.90;;;;;;5051565;28;20087;-64
2024/01/13 04:01:23;;;;;;;10.80;6.05;;;3.00;99.90;;;;;;5067870;28;20060;-64
2024/01/13 04:03:50;;;;;;;8.55;4.25;;;3.20;99.90;;;;;;5068205;28;20083;-65
2024/01/13 04:06:16;;;;;;;5.40;3.28;;;3.00;99.90;;;;;;5050606;28;20420;-65
2024/01/13 04:08:44;;;;;;;4.60;3.55;;;3.00;99.90;;;;;;5068444;28;20174;-65
2024/01/13 04:11:10;;;;;;;6.15;3.40;;;3.00;99.90;;;;;;5068335;28;20065;-64
2024/01/13 04:13:37;;;;;;;5.45;3.10;;;3.20;99.90;;;;;;5051660;28;20052;-65
2024/01/13 04:16:04;;;;;;;3.72;2.83;;;3.30;99.90;;;;;;5068063;28;20056;-65
2024/01/13 04:18:30;;;;;;;5.03;3.33;;;3.40;99.90;;;;;;5067952;28;20045;-64
2024/01/13 04:20:56;;;;;;;4.68;2.90;;;3.30;99.90;;;;;;5068091;28;20444;-65
2024/01/13 04:23:23;;;;;;;4.82;2.70;;;3.20;99.90;;;;;;5051714;28;20052;-65
2024/01/13 04:25:49;;;;;;;3.80;2.58;;;3.30;99.90;;;;;;5071036;28;20053;-64
2024/01/13 04:28:15;;;;;;;4.63;2.40;;;3.10;99.90;;;;;;5071372;28;20480;-63
2024/01/13 04:30:42;;;;;;;7.35;2.97;;;3.20;99.90;;;;;;5055730;28;20454;-65
2024/01/13 04:33:08;;;;;;;5.95;2.78;;;3.40;99.90;;;;;;5071513;28;20059;-65
2024/01/13 04:35:34;;;;;;;4.80;3.13;;;3.30;99.90;;;;;;5071562;28;20479;-65
2024/01/13 04:38:01;;;;;;;5.18;2.97;;;3.40;99.90;;;;;;5071941;28;20063;-65
2024/01/13 04:40:29;;;;;;;3.88;2.70;;;3.30;99.90;;;;;;5071967;28;20059;-64
2024/01/13 04:42:56;;;;;;;3.47;2.65;;;3.40;99.90;;;;;;5054673;28;20060;-65
2024/01/13 04:45:22;;;;;;;4.07;2.65;;;3.10;99.90;;;;;;5072037;28;20060;-64
2024/01/13 04:47:48;;;;;;;4.80;2.63;;;3.30;99.90;;;;;;5070588;28;20045;-63
2024/01/13 04:50:15;;;;;;;4.65;3.00;;;3.20;99.90;;;;;;5054574;28;20056;-65
2024/01/13 04:52:41;;;;;;;7.60;3.20;;;3.40;99.90;;;;;;5071214;28;20052;-65
2024/01/13 04:55:07;;;;;;;9.13;4.97;;;3.30;99.90;;;;;;5071433;28;20071;-65
2024/01/13 04:57:34;;;;;;;6.47;4.70;;;3.40;99.90;;;;;;5070851;28;20063;-66
2024/01/13 05:00:00;;;;;;;5.32;3.65;;;3.20;99.90;;;;;;5071346;28;20060;-63
2024/01/13 05:02:26;;;;;;;6.13;3.33;;;3.30;99.90;;;;;;5071465;28;20049;-65
2024/01/13 05:04:53;;;;;;;5.72;3.38;;;3.10;99.90;;;;;;5071154;28;20479;-65
2024/01/13 05:07:20;;;;;;;4.15;3.03;;;3.00;99.90;;;;;;5053821;28;20060;-64
2024/01/13 05:09:49;;;;;;;6.55;3.08;;;3.30;99.90;;;;;;5071157;28;20060;-65
2024/01/13 05:12:15;;;;;;;4.70;2.92;;;3.10;99.90;;;;;;5071068;28;20056;-64
2024/01/13 05:14:43;;;;;;;6.43;3.45;;;3.40;99.90;;;;;;5071027;28;20059;-65
2024/01/13 05:17:09;;;;;;;5.65;2.97;;;3.30;99.90;;;;;;5070234;28;20048;-65
2024/01/13 05:19:35;;;;;;;7.97;3.53;;;3.20;99.90;;;;;;5070743;28;20079;-65
2024/01/13 05:22:02;;;;;;;4.80;3.10;;;3.20;99.90;;;;;;5071062;28;20055;-65
2024/01/13 05:24:28;;;;;;;6.30;3.40;;;3.20;99.90;;;;;;5070993;28;20062;-65
2024/01/13 05:26:55;;;;;;;7.40;3.42;;;3.20;99.90;;;;;;5070317;28;20052;-64
2024/01/13 05:29:22;;;;;;;4.32;2.60;;;3.20;99.90;;;;;;5070694;28;20052;-65
2024/01/13 05:31:48;;;;;;;4.63;2.60;;;3.20;99.90;;;;;;5070880;28;20109;-63
2024/01/13 05:34:14;;;;;;;4.03;2.70;;;3.30;99.90;;;;;;5070966;28;20107;-65
2024/01/13 05:36:40;;;;;;;4.35;2.80;;;3.30;99.90;;;;;;5069386;28;20052;-64
2024/01/13 05:39:07;;;;;;;4.63;2.80;;;3.20;99.90;;;;;;5070758;28;20055;-65
2024/01/13 05:41:33;;;;;;;4.97;2.90;;;3.40;99.90;;;;;;5070421;28;20052;-65
2024/01/13 05:43:59;;;;;;;6.32;2.95;;;3.40;99.90;;;;;;5070485;28;20131;-65
2024/01/13 05:46:25;;;;;;;7.72;3.22;;;3.40;99.90;;;;;;5069920;28;20056;-66
2024/01/13 05:48:52;;;;;;;9.25;5.20;;;3.20;99.90;;;;;;5070283;28;20048;-65
2024/01/13 05:51:18;;;;;;;5.82;3.22;;;3.20;99.90;;;;;;5070081;28;20049;-65
2024/01/13 05:53:44;;;;;;;5.18;2.58;;;3.20;99.90;;;;;;5070560;28;20068;-65
2024/01/13 05:56:10;;;;;;;5.70;2.58;;;3.30;99.90;;;;;;5069616;28;20036;-64
2024/01/13 05:58:37;;;;;;;3.53;2.58;;;3.40;99.90;;;;;;5070126;28;20570;-64
2024/01/13 06:01:03;;;;;;;3.67;2.72;;;3.20;99.90;;;;;;5070114;28;20060;-65
2024/01/13 06:03:30;;;;;;;3.05;2.40;;;3.20;99.90;;;;;;5070043;28;20097;-65
2024/01/13 06:05:56;;;;;;;2.95;2.25;;;3.20;99.90;;;;;;5069779;28;20492;-65
2024/01/13 06:08:22;;;;;;;3.30;2.38;;;3.40;99.90;;;;;;5069261;28;20280;-64
2024/01/13 06:10:50;;;;;;;4.72;2.67;;;3.20;99.90;;;;;;5069660;28;20439;-64
2024/01/13 06:13:18;;;;;;;3.85;2.70;;;3.10;99.90;;;;;;5069684;28;20060;-65
2024/01/13 06:15:44;;;;;;;4.30;2.42;;;3.40;99.90;;;;;;5069705;28;20080;-65
2024/01/13 06:18:10;;;;;;;4.55;2.30;;;3.10;99.90;;;;;;5069470;28;20119;-64
2024/01/13 06:20:37;;;;;;;4.80;2.60;;;3.20;99.90;;;;;;5069509;28;20052;-65
2024/01/13 06:23:03;;;;;;;3.95;2.42;;;3.20;99.90;;;;;;5069829;28;20302;-61
2024/01/13 06:25:32;;;;;;;4.00;2.40;;;3.40;99.90;;;;;;5069536;28;20330;-64
2024/01/13 06:27:58;;;;;;;2.92;2.05;;;3.20;99.90;;;;;;5069082;28;20102;-64
2024/01/13 06:30:24;;;;;;;3.15;1.80;;;3.40;99.90;;;;;;5069249;28;20048;-63
2024/01/13 06:32:50;;;;;;;2.83;2.05;;;3.30;99.90;;;;;;5069676;28;20060;-64
2024/01/13 06:35:17;;;;;;;3.05;2.00;;;3.20;99.90;;;;;;5069226;28;20056;-64
2024/01/13 06:37:43;;;;;;;4.55;2.63;;;3.40;99.90;;;;;;5051900;28;20122;-64
2024/01/13 06:40:10;;;;;;;3.38;2.20;;;3.40;99.90;;;;;;5052989;28;20429;-65
2024/01/13 06:42:36;;;;;;;3.70;3.10;;;3.30;99.90;;;;;;5069073;28;20048;-63
2024/01/13 06:45:03;;;;;;;6.57;2.70;;;3.30;99.90;;;;;;5068911;28;20049;-64
2024/01/13 06:47:30;;;;;;;4.63;2.63;;;3.10;99.90;;;;;;5067812;28;20052;-64
2024/01/13 06:49:56;;;;;;;4.63;2.42;;;3.10;99.90;;;;;;5072365;28;20078;-64
2024/01/13 06:52:23;;;;;;;3.78;2.28;;;3.20;99.90;;;;;;5068549;28;20468;-65
2024/01/13 06:54:49;;;;;;;5.75;2.42;;;3.30;99.90;;;;;;5069081;28;20479;-64
2024/01/13 06:57:20;;;;;;;4.57;2.40;;;3.10;99.90;;;;;;5068166;28;20048;-65
2024/01/13 06:59:46;;;;;;;8.20;4.20;;;3.40;99.90;;;;;;5052155;28;20047;-64
2024/01/13 07:02:13;;;;;;;8.77;4.80;;;3.10;99.90;;;;;;5068956;28;20071;-63
2024/01/13 07:04:40;;;;;;;13.82;6.65;;;3.30;99.90;;;;;;5052580;28;20059;-64
2024/01/13 07:07:08;;;;;;;9.00;5.57;;;3.20;99.90;;;;;;5068422;28;20055;-64
2024/01/13 07:09:34;;;;;;;9.75;3.75;;;3.30;99.90;;;;;;5052251;28;20067;-65
2024/01/13 07:12:00;;;;;;;5.30;2.00;;;3.20;99.90;;;;;;5069100;28;20052;-64
2024/01/13 07:14:29;;;;;;;6.25;2.60;;;3.30;99.90;;;;;;5068406;28;20465;-64
2024/01/13 07:16:55;;;;;;;5.07;2.97;;;3.40;99.90;;;;;;5068041;28;20049;-64
2024/01/13 07:19:21;;;;;;;5.78;3.17;;;3.20;99.90;;;;;;5068542;28;20055;-64
2024/01/13 07:21:48;;;;;;;12.13;5.00;;;3.20;99.90;;;;;;5068891;28;20461;-65
2024/01/13 07:24:14;;;;;;;12.90;5.50;;;3.40;99.90;;;;;;5068454;28;20374;-64
2024/01/13 07:26:41;;;;;;;11.90;5.28;;;3.40;99.90;;;;;;5051617;28;20092;-63
2024/01/13 07:29:07;;;;;;;4.28;2.45;;;3.50;99.90;;;;;;5051373;28;20067;-64
2024/01/13 07:31:34;;;;;;;5.43;2.60;;;3.50;99.90;;;;;;5066561;28;20055;-64
2024/01/13 07:34:01;;;;;;;9.20;5.13;;;3.50;99.90;;;;;;5069953;28;20060;-64
2024/01/13 07:36:27;;;;;;;8.88;4.15;;;3.40;99.90;;;;;;5068203;28;20040;-63
2024/01/13 07:38:54;;;;;;;9.23;4.15;;;3.40;99.90;;;;;;5068084;28;20055;-64
2024/01/13 07:41:20;;;;;;;6.40;3.22;;;3.40;99.90;;;;;;5067613;28;20049;-63
2024/01/13 07:43:46;;;;;;;8.98;4.07;;;3.60;99.90;;;;;;5065244;28;20044;-64
2024/01/13 07:46:12;;;;;;;6.82;3.38;;;3.30;99.90;;;;;;5067234;28;20106;-64
2024/01/13 07:48:39;;;;;;;6.60;3.63;;;3.40;99.90;;;;;;5068150;28;20056;-63
2024/01/13 07:51:08;;;;;;;7.82;4.20;;;3.40;99.90;;;;;;5068192;28;20053;-64
2024/01/13 07:53:37;;;;;;;11.10;3.85;;;3.50;99.90;;;;;;5051717;28;20139;-65
2024/01/13 07:56:04;;;;;;;10.63;4.45;;;3.70;99.90;;;;;;5050945;28;20181;-66
2024/01/13 07:58:30;;;;;;;6.05;3.20;;;3.40;99.90;;;;;;5068504;28;20048;-63
2024/01/13 08:00:56;;;;;;;6.15;2.40;;;3.60;99.90;;;;;;5071433;28;20707;-65
2024/01/13 08:03:22;;;;;;;4.35;3.03;;;3.40;99.90;;;;;;5072098;28;20499;-64
2024/01/13 08:05:49;;;;;;;4.43;3.20;;;3.60;99.90;;;;;;5055500;28;20338;-64
2024/01/13 08:08:15;;;;;;;4.70;2.90;;;3.70;99.90;;;;;;5071349;28;20607;-63
2024/01/13 08:10:41;;;;;;;5.55;3.38;;;3.40;99.90;;;;;;5071883;28;20055;-63
2024/01/13 08:13:08;;;;;;;7.57;3.40;;;3.70;99.90;;;;;;5072124;28;20052;-64
2024/01/13 08:15:34;;;;;;;8.00;4.45;;;3.50;99.90;;;;;;5073614;28;20508;-65
2024/01/13 08:18:00;;;;;;;12.10;5.93;;;3.60;99.90;;;;;;5070897;28;20049;-65
2024/01/13 08:20:27;;;;;;;10.98;6.05;;;3.50;99.90;;;;;;5071208;28;20048;-63
2024/01/13 08:22:53;;;;;;;13.98;6.63;;;3.50;99.90;;;;;;5071877;28;20396;-64
2024/01/13 08:25:19;;;;;;;13.55;7.57;;;3.40;99.90;;;;;;5071608;28;20052;-65
2024/01/13 08:27:45;;;;;;;15.18;7.32;;;3.40;99.90;;;;;;5071261;28;20047;-64
2024/01/13 08:30:12;;;;;;;12.63;6.57;;;3.70;99.90;;;;;;5071019;28;20106;-64
2024/01/13 08:32:38;;;;;;;15.63;7.25;;;3.50;99.90;;;;;;5070823;28;20048;-64
2024/01/13 08:35:07;;;;;;;15.00;7.07;;;3.70;99.90;;;;;;5071166;28;20048;-66
2024/01/13 08:37:33;;;;;;;13.82;6.85;;;3.60;99.90;;;;;;5070020;28;20058;-64
2024/01/13 08:39:59;;;;;;;17.10;7.90;;;3.40;99.90;;;;;;5070523;28;20044;-64
2024/01/13 08:42:25;;;;;;;14.48;8.02;;;3.40;99.90;;;;;;5071366;28;20114;-65
2024/01/13 08:44:53;;;;;;;17.83;9.20;;;3.60;99.90;;;;;;5071283;28;20127;-63
2024/01/13 08:47:19;;;;;;;15.68;9.35;;;3.30;99.90;;;;;;5070483;28;20052;-64
2024/01/13 08:49:46;;;;;;;19.13;9.30;;;3.50;99.90;;;;;;5070443;28;20048;-62
2024/01/13 08:52:12;;;;;;;20.35;11.10;;;3.60;99.90;;;;;;5070973;28;20105;-64
2024/01/13 08:54:38;;;;;;;20.48;10.52;;;3.40;99.90;;;;;;5071081;28;20094;-64
2024/01/13 08:57:04;;;;;;;24.00;12.52;;;3.60;99.90;;;;;;5070490;28;20097;-64
2024/01/13 08:59:33;;;;;;;23.50;12.07;;;3.50;99.90;;;;;;5069590;28;20048;-63
2024/01/13 09:02:00;;;;;;;23.40;11.70;;;3.40;99.90;;;;;;5071367;28;20045;-65
2024/01/13 09:04:26;;;;;;;24.05;13.57;;;3.50;99.90;;;;;;5070799;28;20356;-63
2024/01/13 09:06:52;;;;;;;23.60;11.80;;;3.40;99.90;;;;;;5070432;28;20106;-65
2024/01/13 09:09:19;;;;;;;22.00;11.57;;;3.60;99.90;;;;;;5053964;28;20110;-64
2024/01/13 09:11:46;;;;;;;29.02;12.40;;;3.40;99.90;;;;;;5069493;28;20051;-64
2024/01/13 09:14:13;;;;;;;25.38;13.23;;;3.50;99.90;;;;;;5053532;28;20547;-64
2024/01/13 09:16:40;;;;;;;29.92;14.70;;;3.50;99.90;;;;;;5070011;28;20357;-66
2024/01/13 09:19:06;;;;;;;35.30;15.82;;;3.50;99.90;;;;;;5067454;28;20373;-65
2024/01/13 09:21:32;;;;;;;30.48;15.73;;;3.40;99.90;;;;;;5070467;28;20048;-63
2024/01/13 09:24:00;;;;;;;31.05;15.55;;;3.60;99.90;;;;;;5070778;28;20439;-63
2024/01/13 09:26:26;;;;;;;30.73;14.20;;;3.60;99.90;;;;;;5067043;28;20052;-64
2024/01/13 09:28:53;;;;;;;33.38;15.20;;;3.40;99.90;;;;;;5049263;28;20045;-65
2024/01/13 09:31:19;;;;;;;33.25;16.27;;;3.60;99.90;;;;;;5069672;28;20057;-64
2024/01/13 09:33:46;;;;;;;34.30;18.08;;;3.60;99.90;;;;;;5070075;28;20048;-63
2024/01/13 09:36:12;;;;;;;37.08;17.90;;;3.50;99.90;;;;;;5053132;28;20059;-65
2024/01/13 09:38:38;;;;;;;39.60;19.98;;;3.60;99.90;;;;;;5070420;28;20328;-63
2024/01/13 09:41:06;;;;;;;35.95;18.45;;;3.60;99.90;;;;;;5069942;28;20478;-64
2024/01/13 09:44:00;;;;;;;33.05;15.48;;;3.40;99.90;;;;;;5070667;28;20048;-64
2024/01/13 09:46:27;;;;;;;30.80;15.13;;;3.70;99.90;;;;;;5059616;28;20052;-63
2024/01/13 09:48:55;;;;;;;29.02;15.07;;;3.70;99.90;;;;;;5069659;28;20048;-64
2024/01/13 09:51:23;;;;;;;32.70;16.63;;;3.50;99.90;;;;;;5071549;28;20329;-63
2024/01/13 09:53:57;;;;;;;53.85;22.90;;;3.70;99.90;;;;;;5052065;28;20551;-64
2024/01/13 09:56:32;;;;;;;56.55;23.63;;;3.70;99.90;;;;;;5092635;28;20447;-64
2024/01/13 09:59:00;;;;;;;55.60;22.42;;;3.60;99.90;;;;;;5093508;28;20049;-64
2024/01/13 10:01:29;;;;;;;55.65;23.13;;;3.70;99.90;;;;;;5086896;28;20045;-65
2024/01/13 10:03:55;;;;;;;50.38;22.98;;;3.80;99.90;;;;;;5070774;28;20464;-66
2024/01/13 10:06:24;;;;;;;49.88;22.67;;;3.70;99.90;;;;;;5070465;28;20067;-65
2024/01/13 10:08:50;;;;;;;45.30;24.00;;;3.90;99.90;;;;;;5068876;28;20117;-66
2024/01/13 10:11:16;;;;;;;42.55;23.27;;;3.90;99.90;;;;;;5069840;28;20106;-64
2024/01/13 10:13:56;;;;;;;36.63;19.58;;;3.90;99.90;;;;;;5070356;28;20119;-63
2024/01/13 10:16:26;;;;;;;38.42;20.48;;;3.90;99.90;;;;;;5053204;28;20414;-64
2024/01/13 10:18:52;;;;;;;36.38;20.42;;;3.90;99.90;;;;;;5069762;28;20530;-64
2024/01/13 10:21:19;;;;;;;36.33;20.48;;;3.80;99.90;;;;;;5052669;28;20036;-64
2024/01/13 10:23:45;;;;;;;39.40;19.58;;;3.80;99.90;;;;;;5069422;28;20472;-65
2024/01/13 10:26:12;;;;;;;39.08;21.20;;;4.00;99.90;;;;;;5069211;28;20056;-64
2024/01/13 10:28:39;;;;;;;44.67;24.90;;;3.80;99.90;;;;;;5069765;28;20164;-64
2024/01/13 10:31:06;;;;;;;46.60;24.65;;;3.80;99.90;;;;;;5069174;28;20052;-64
2024/01/13 10:33:32;;;;;;;56.53;24.00;;;3.90;99.90;;;;;;5069829;28;20530;-64
2024/01/13 10:35:58;;;;;;;52.30;23.63;;;4.00;99.90;;;;;;5053044;28;20510;-64
2024/01/13 10:38:25;;;;;;;52.58;26.98;;;3.90;99.90;;;;;;5069163;28;20346;-64
2024/01/13 10:40:52;;;;;;;46.33;24.98;;;4.10;99.90;;;;;;5069272;28;20041;-62
2024/01/13 10:43:22;;;;;;;62.80;31.52;;;4.10;99.90;;;;;;5068971;28;20066;-64
2024/01/13 10:45:56;;;;;;;54.92;30.15;;;4.10;99.90;;;;;;5069349;28;20510;-64
2024/01/13 10:48:40;;;;;;;57.42;27.08;;;4.10;99.90;;;;;;5068988;28;20052;-64
2024/01/13 10:51:17;;;;;;;58.42;28.15;;;4.20;99.90;;;;;;5068731;28;20052;-65
2024/01/13 10:53:47;;;;;;;54.92;25.25;;;3.90;99.90;;;;;;5070388;28;20063;-64
2024/01/13 10:56:15;;;;;;;46.88;24.60;;;4.00;99.90;;;;;;5069113;28;20052;-64
2024/01/13 10:58:44;;;;;;;48.33;27.15;;;3.90;99.90;;;;;;5069850;28;20397;-65
2024/01/13 11:01:10;;;;;;;48.85;25.55;;;4.10;99.90;;;;;;5070012;28;20060;-63
2024/01/13 11:03:40;;;;;;;51.92;27.40;;;4.10;99.90;;;;;;5069374;28;20048;-65
2024/01/13 11:06:06;;;;;;;48.80;26.95;;;4.00;99.90;;;;;;5068385;28;20225;-64
2024/01/13 11:08:34;;;;;;;44.55;25.05;;;4.00;99.90;;;;;;5070314;28;20056;-64
2024/01/13 11:11:01;;;;;;;46.97;25.75;;;4.20;99.90;;;;;;5068580;28;20475;-64
2024/01/13 11:13:32;;;;;;;48.53;24.55;;;4.10;99.90;;;;;;5068965;28;20499;-64
2024/01/13 11:16:04;;;;;;;51.35;25.48;;;4.20;99.90;;;;;;5068730;28;20048;-64
2024/01/13 11:18:37;;;;;;;50.83;26.30;;;4.00;99.90;;;;;;5068742;28;20041;-63
2024/01/13 11:21:05;;;;;;;54.80;26.75;;;4.10;99.90;;;;;;5068840;28;20048;-64
2024/01/13 11:23:57;;;;;;;50.97;25.77;;;4.10;99.90;;;;;;5052480;28;20536;-64
2024/01/13 11:26:37;;;;;;;52.58;27.70;;;4.20;99.90;;;;;;5068810;28;20040;-63
2024/01/13 11:29:17;;;;;;;53.95;27.70;;;4.20;99.90;;;;;;5068175;28;20052;-64
2024/01/13 11:31:47;;;;;;;51.65;25.80;;;4.20;99.90;;;;;;5068338;28;20068;-64
2024/01/13 11:34:16;;;;;;;50.75;24.50;;;4.20;99.90;;;;;;5068448;28;20056;-64
2024/01/13 11:37:00;;;;;;;43.90;23.67;;;4.30;99.90;;;;;;5068133;28;20059;-64
2024/01/13 11:39:27;;;;;;;37.30;20.27;;;4.40;99.90;;;;;;5068312;28;20052;-64
2024/01/13 11:41:55;;;;;;;39.92;21.13;;;4.20;99.90;;;;;;5068367;28;20055;-63
2024/01/13 11:44:22;;;;;;;40.22;20.88;;;4.20;99.90;;;;;;5051991;28;20052;-63
2024/01/13 11:47:02;;;;;;;42.22;22.60;;;4.30;99.90;;;;;;5067698;28;20761;-65
2024/01/13 11:49:33;;;;;;;37.50;20.63;;;4.20;99.90;;;;;;5068345;28;20152;-64
2024/01/13 11:52:04;;;;;;;41.60;22.13;;;4.50;99.90;;;;;;5068453;28;20130;-64
2024/01/13 11:54:32;;;;;;;52.58;27.08;;;4.40;99.90;;;;;;5051739;28;20071;-62
2024/01/13 11:57:01;;;;;;;41.08;20.48;;;4.50;99.90;;;;;;5068269;28;20123;-63
2024/01/13 11:59:28;;;;;;;45.97;22.70;;;4.40;99.90;;;;;;5067997;28;20062;-64
2024/01/13 12:01:55;;;;;;;44.42;22.50;;;4.60;99.90;;;;;;5068439;28;20052;-63
2024/01/13 12:04:25;;;;;;;44.17;22.38;;;4.40;99.90;;;;;;5068277;28;20397;-63
2024/01/13 12:06:53;;;;;;;45.15;21.98;;;4.50;99.90;;;;;;5067943;28;20391;-64
2024/01/13 12:09:27;;;;;;;38.63;19.55;;;4.50;99.90;;;;;;5051321;28;20048;-65
2024/01/13 12:12:02;;;;;;;40.40;20.20;;;4.50;99.90;;;;;;5068481;28;20458;-63
2024/01/13 12:14:30;;;;;;;33.80;19.90;;;4.60;99.90;;;;;;5068073;28;20048;-64
2024/01/13 12:16:59;;;;;;;34.28;19.00;;;4.70;99.90;;;;;;5067932;28;20371;-63
2024/01/13 12:19:36;;;;;;;33.20;19.98;;;4.80;99.90;;;;;;5067556;28;20102;-64
2024/01/13 12:22:06;;;;;;;38.00;19.92;;;4.80;99.90;;;;;;5068010;28;20419;-65
2024/01/13 12:24:34;;;;;;;29.83;16.85;;;4.70;99.90;;;;;;5068184;28;20059;-64
2024/01/13 12:27:00;;;;;;;36.38;19.00;;;4.60;99.90;;;;;;5067862;28;20055;-65
2024/01/13 12:29:30;;;;;;;33.13;17.27;;;4.90;99.90;;;;;;5050888;28;20071;-65
2024/01/13 12:32:01;;;;;;;31.58;16.92;;;4.90;99.90;;;;;;5068087;28;20063;-64
2024/01/13 12:34:27;;;;;;;27.10;17.00;;;4.80;99.90;;;;;;5051288;28;20063;-64
2024/01/13 12:36:57;;;;;;;29.67;15.95;;;4.70;99.90;;;;;;5067773;28;20086;-63
2024/01/13 12:39:24;;;;;;;32.00;17.35;;;4.80;99.90;;;;;;5068607;28;20045;-64
2024/01/13 12:41:52;;;;;;;25.83;14.98;;;4.90;99.90;;;;;;5067993;28;20040;-64
2024/01/13 12:44:21;;;;;;;23.73;14.15;;;5.00;99.90;;;;;;5068824;28;20064;-65
2024/01/13 12:46:56;;;;;;;30.83;16.95;;;5.00;99.90;;;;;;5070428;28;20056;-65
2024/01/13 12:49:23;;;;;;;30.58;18.02;;;4.90;99.90;;;;;;5072330;28;20353;-65